createdAt,value
2022-11-05T00:05:23.585Z,18.00
2022-11-05T00:10:49.313Z,21.73
2022-11-05T00:16:36.349Z,19.17
2022-11-05T00:22:19.491Z,20.52
2022-11-05T00:27:49.921Z,21.02
2022-11-05T00:33:20.786Z,18.30
2022-11-05T00:38:44.345Z,14.02
2022-11-05T00:44:30.244Z,14.57
2022-11-05T00:50:00.909Z,14.20
2022-11-05T00:55:26.336Z,13.93
2022-11-05T01:00:56.995Z,17.85
2022-11-05T01:06:27.760Z,17.73
2022-11-05T01:11:55.802Z,18.17
2022-11-05T01:17:22.165Z,15.73
2022-11-05T01:22:52.816Z,18.20
2022-11-05T01:28:21.662Z,17.58
2022-11-05T01:33:45.951Z,16.52
2022-11-05T01:39:16.992Z,17.52
2022-11-05T01:45:01.292Z,19.08
2022-11-05T01:50:36.044Z,19.42
2022-11-05T01:56:10.947Z,20.00
2022-11-05T02:01:36.549Z,18.30
2022-11-05T02:07:01.497Z,17.98
2022-11-05T02:12:29.263Z,18.58
2022-11-05T02:18:11.205Z,18.77
2022-11-05T02:24:02.359Z,20.58
2022-11-05T02:30:06.683Z,20.63
2022-11-05T02:35:54.009Z,21.63
2022-11-05T02:41:24.855Z,22.25
2022-11-05T02:46:57.690Z,21.77
2022-11-05T02:52:38.825Z,20.75
2022-11-05T02:58:04.210Z,21.48
2022-11-05T03:03:38.399Z,21.23
2022-11-05T03:09:33.546Z,21.85
2022-11-05T03:15:13.845Z,20.35
2022-11-05T03:20:48.378Z,20.30
2022-11-05T03:26:24.640Z,20.45
2022-11-05T03:31:56.681Z,21.35
2022-11-05T03:37:29.157Z,22.83
2022-11-05T03:43:00.691Z,21.48
2022-11-05T03:48:27.783Z,23.13
2022-11-05T03:53:59.083Z,21.60
2022-11-05T03:59:31.448Z,20.55
2022-11-05T04:04:55.976Z,20.73
2022-11-05T04:10:42.820Z,19.98
2022-11-05T04:16:30.231Z,21.25
2022-11-05T04:22:17.007Z,22.63
2022-11-05T04:27:44.914Z,22.58
2022-11-05T04:33:16.311Z,23.27
2022-11-05T04:38:38.565Z,21.45
2022-11-05T04:44:04.387Z,21.75
2022-11-05T04:49:34.899Z,21.88
2022-11-05T05:00:26.943Z,21.52
2022-11-05T05:05:58.255Z,22.73
2022-11-05T05:11:25.528Z,21.33
2022-11-05T05:16:52.095Z,21.83
2022-11-05T05:22:23.219Z,22.38
2022-11-05T05:27:52.628Z,23.95
2022-11-05T05:33:17.951Z,20.92
2022-11-05T05:38:44.275Z,20.48
2022-11-05T05:44:13.581Z,19.60
2022-11-05T05:49:42.502Z,22.00
2022-11-05T05:55:12.605Z,21.48
2022-11-05T06:00:41.144Z,20.88
2022-11-05T06:06:06.276Z,22.83
2022-11-05T06:11:30.883Z,24.73
2022-11-05T06:17:00.318Z,20.48
2022-11-05T06:22:23.853Z,23.95
2022-11-05T06:27:50.750Z,22.27
2022-11-05T06:33:19.644Z,22.70
2022-11-05T06:38:43.495Z,25.67
2022-11-05T06:44:08.360Z,26.52
2022-11-05T06:49:37.594Z,27.45
2022-11-05T06:55:02.491Z,26.17
2022-11-05T07:00:33.807Z,23.90
2022-11-05T07:06:04.571Z,21.98
2022-11-05T07:11:32.078Z,21.73
2022-11-05T07:22:32.883Z,17.02
2022-11-05T07:27:59.998Z,17.23
2022-11-05T07:33:32.348Z,15.90
2022-11-05T07:39:00.579Z,15.18
2022-11-05T07:44:29.238Z,14.40
2022-11-05T07:50:00.233Z,17.08
2022-11-05T07:55:23.787Z,15.98
2022-11-05T08:00:51.700Z,16.85
2022-11-05T08:06:23.416Z,15.23
2022-11-05T08:11:58.575Z,16.48
2022-11-05T08:17:30.508Z,16.52
2022-11-05T08:22:56.907Z,16.00
2022-11-05T08:28:21.919Z,17.77
2022-11-05T08:33:45.058Z,17.92
2022-11-05T08:39:18.796Z,18.52
2022-11-05T08:44:48.193Z,18.77
2022-11-05T08:50:11.842Z,20.65
2022-11-05T08:55:44.002Z,21.38
2022-11-05T09:01:09.800Z,19.50
2022-11-05T09:06:39.089Z,14.67
2022-11-05T09:12:12.692Z,15.55
2022-11-05T09:17:38.754Z,15.90
2022-11-05T09:23:01.901Z,14.77
2022-11-05T09:28:28.604Z,16.13
2022-11-05T09:33:52.877Z,14.32
2022-11-05T09:39:16.462Z,14.55
2022-11-05T09:44:45.966Z,15.00
2022-11-05T09:50:20.139Z,14.13
2022-11-05T09:55:46.733Z,14.00
2022-11-05T10:01:26.698Z,13.15
2022-11-05T10:07:00.986Z,12.10
2022-11-05T10:12:38.713Z,11.70
2022-11-05T10:18:20.200Z,10.55
2022-11-05T10:23:44.458Z,11.52
2022-11-05T10:29:17.096Z,13.50
2022-11-05T10:34:45.948Z,11.85
2022-11-05T10:40:20.820Z,12.75
2022-11-05T10:45:57.360Z,12.45
2022-11-05T10:51:22.240Z,13.18
2022-11-05T10:56:45.867Z,11.55
2022-11-05T11:02:22.885Z,13.18
2022-11-05T11:07:55.177Z,11.45
2022-11-05T11:13:24.312Z,11.35
2022-11-05T11:18:47.907Z,12.40
2022-11-05T11:24:23.447Z,10.55
2022-11-05T11:35:22.773Z,9.00
2022-11-05T11:40:52.767Z,9.77
2022-11-05T11:46:20.912Z,11.25
2022-11-05T11:51:51.605Z,11.40
2022-11-05T11:57:24.638Z,11.18
2022-11-05T12:03:14.725Z,10.38
2022-11-05T12:08:58.199Z,10.20
2022-11-05T12:14:46.100Z,9.65
2022-11-05T12:20:30.145Z,7.43
2022-11-05T12:25:59.406Z,8.45
2022-11-05T12:37:13.715Z,7.50
2022-11-05T12:43:11.970Z,7.57
2022-11-05T12:48:56.820Z,7.40
2022-11-05T12:54:38.948Z,8.18
2022-11-05T13:00:15.815Z,7.10
2022-11-05T13:05:52.391Z,6.97
2022-11-05T13:11:22.545Z,7.78
2022-11-05T13:16:55.548Z,8.43
2022-11-05T13:22:32.094Z,8.30
2022-11-05T13:28:07.832Z,8.38
2022-11-05T13:33:41.201Z,11.40
2022-11-05T13:39:19.174Z,11.85
2022-11-05T13:45:26.751Z,11.07
2022-11-05T13:51:22.456Z,11.98
2022-11-05T13:57:04.924Z,10.25
2022-11-05T14:02:37.264Z,10.35
2022-11-05T14:08:11.428Z,9.90
2022-11-05T14:13:45.598Z,9.00
2022-11-05T14:19:36.027Z,10.18
2022-11-05T14:25:03.822Z,10.25
2022-11-05T14:30:46.225Z,12.77
2022-11-05T14:36:32.322Z,13.80
2022-11-05T14:42:04.911Z,16.98
2022-11-05T14:47:41.804Z,15.82
2022-11-05T14:53:14.050Z,14.45
2022-11-05T14:58:41.944Z,15.68
2022-11-05T15:04:27.237Z,15.43
2022-11-05T15:15:40.224Z,17.38
2022-11-05T15:21:05.927Z,19.20
2022-11-05T15:26:43.652Z,20.83
2022-11-05T15:32:18.951Z,20.13
2022-11-05T15:37:58.859Z,17.38
2022-11-05T15:43:31.435Z,18.50
2022-11-05T15:49:00.816Z,16.75
2022-11-05T15:54:30.582Z,16.92
2022-11-05T16:00:04.028Z,15.95
2022-11-05T16:05:35.280Z,14.48
2022-11-05T16:11:06.513Z,13.98
2022-11-05T16:16:35.746Z,13.20
2022-11-05T16:22:04.193Z,14.27
2022-11-05T16:27:34.916Z,12.45
2022-11-05T16:33:09.030Z,13.85
2022-11-05T16:38:37.875Z,14.50
2022-11-05T16:44:11.240Z,13.82
2022-11-05T16:49:40.464Z,13.05
2022-11-05T16:55:04.956Z,12.02
2022-11-05T17:00:32.888Z,14.18
2022-11-05T17:06:03.375Z,9.90
2022-11-05T17:11:32.999Z,9.88
2022-11-05T17:17:01.365Z,10.57
2022-11-05T17:27:49.146Z,9.63
2022-11-05T17:33:17.618Z,10.93
2022-11-05T17:38:44.514Z,8.00
2022-11-05T17:44:11.755Z,9.48
2022-11-05T17:49:36.096Z,8.30
2022-11-05T17:55:08.606Z,7.78
2022-11-05T18:00:39.301Z,8.52
2022-11-05T18:06:14.348Z,8.57
2022-11-05T18:17:27.046Z,7.95
2022-11-05T18:22:59.355Z,9.30
2022-11-05T18:28:23.562Z,8.73
2022-11-05T18:33:49.572Z,9.18
2022-11-05T18:39:17.277Z,9.73
2022-11-05T18:44:47.524Z,10.07
2022-11-05T18:50:18.566Z,10.13
2022-11-05T18:55:51.104Z,12.82
2022-11-05T19:01:23.242Z,10.98
2022-11-05T19:06:56.934Z,11.73
2022-11-05T19:12:33.489Z,11.85
2022-11-05T19:18:05.671Z,10.32
2022-11-05T19:23:46.677Z,12.40
2022-11-05T19:29:16.935Z,11.68
2022-11-05T19:34:45.678Z,12.23
2022-11-05T19:40:18.245Z,11.57
2022-11-05T19:45:45.022Z,12.88
2022-11-05T19:51:16.212Z,12.23
2022-11-05T19:56:42.419Z,12.85
2022-11-05T20:02:16.188Z,11.40
2022-11-05T20:07:43.614Z,10.10
2022-11-05T20:13:19.767Z,10.38
2022-11-05T20:18:52.211Z,10.30
2022-11-05T20:24:24.800Z,10.70
2022-11-05T20:29:54.844Z,10.93
2022-11-05T20:35:21.164Z,10.77
2022-11-05T20:40:46.029Z,10.63
2022-11-05T20:46:16.976Z,9.93
2022-11-05T20:51:42.422Z,11.20
2022-11-05T20:57:09.057Z,10.73
2022-11-05T21:02:35.961Z,10.32
2022-11-05T21:08:06.578Z,10.25
2022-11-05T21:13:41.791Z,10.45
2022-11-05T21:19:32.486Z,10.98
2022-11-05T21:25:06.008Z,11.02
2022-11-05T21:30:34.726Z,12.32
2022-11-05T21:36:08.217Z,10.88
2022-11-05T21:41:33.379Z,10.75
2022-11-05T21:46:58.391Z,10.05
2022-11-05T21:58:32.769Z,10.75
2022-11-05T22:04:03.308Z,11.43
2022-11-05T22:09:33.120Z,10.68
2022-11-05T22:15:04.310Z,10.82
2022-11-05T22:20:28.184Z,9.68
2022-11-05T22:25:59.388Z,9.43
2022-11-05T22:31:35.690Z,9.07
2022-11-05T22:37:05.830Z,10.63
2022-11-05T22:42:29.580Z,8.63
2022-11-05T22:47:56.678Z,9.35
2022-11-05T22:53:25.644Z,9.50
2022-11-05T22:58:53.124Z,9.25
2022-11-05T23:04:23.984Z,8.23
2022-11-05T23:10:10.390Z,8.25
2022-11-05T23:15:56.633Z,9.82
2022-11-05T23:21:49.923Z,10.93
2022-11-05T23:27:18.328Z,10.20
2022-11-05T23:32:42.331Z,11.85
2022-11-05T23:38:27.566Z,11.10
2022-11-05T23:44:14.228Z,11.60
2022-11-05T23:49:43.630Z,11.65
2022-11-05T23:55:10.258Z,12.38
